createdAt,value
2023-04-30T00:00:22.720Z,7.23
2023-04-30T00:01:22.689Z,7.11
2023-04-30T00:02:22.818Z,7.21
2023-04-30T00:03:22.784Z,7.14
2023-04-30T00:04:22.775Z,7.16
2023-04-30T00:05:22.668Z,7.29
2023-04-30T00:06:22.695Z,7.26
2023-04-30T00:07:22.680Z,7.42
2023-04-30T00:08:22.626Z,7.33
2023-04-30T00:09:22.625Z,7.42
2023-04-30T00:10:22.595Z,7.39
2023-04-30T00:11:22.596Z,7.63
2023-04-30T00:12:22.588Z,7.70
2023-04-30T00:13:22.578Z,7.63
2023-04-30T00:14:22.569Z,7.76
2023-04-30T00:15:22.559Z,7.62
2023-04-30T00:16:22.617Z,7.69
2023-04-30T00:17:22.564Z,7.51
2023-04-30T00:18:22.510Z,7.47
2023-04-30T00:19:22.506Z,7.60
2023-04-30T00:20:22.492Z,7.58
2023-04-30T00:21:22.545Z,7.58
2023-04-30T00:22:22.467Z,7.71
2023-04-30T00:23:22.470Z,7.69
2023-04-30T00:24:22.479Z,7.57
2023-04-30T00:25:22.436Z,7.71
2023-04-30T00:26:22.424Z,7.50
2023-04-30T00:27:22.432Z,7.51
2023-04-30T00:28:22.404Z,7.50
2023-04-30T00:29:22.389Z,7.44
2023-04-30T00:30:22.390Z,7.50
2023-04-30T00:31:22.386Z,7.50
2023-04-30T00:32:22.521Z,7.37
2023-04-30T00:33:22.369Z,7.45
2023-04-30T00:34:22.340Z,7.55
2023-04-30T00:35:22.328Z,7.45
2023-04-30T00:36:22.314Z,7.52
2023-04-30T00:37:22.312Z,7.52
2023-04-30T00:38:22.291Z,7.55
2023-04-30T00:39:22.324Z,7.47
2023-04-30T00:40:22.279Z,7.45
2023-04-30T00:41:22.254Z,7.50
2023-04-30T00:42:22.262Z,7.50
2023-04-30T00:43:22.243Z,7.48
2023-04-30T00:44:22.237Z,7.47
2023-04-30T00:45:22.238Z,7.50
2023-04-30T00:46:22.319Z,7.39
2023-04-30T00:47:22.237Z,7.48
2023-04-30T00:48:22.181Z,7.37
2023-04-30T00:49:22.171Z,7.41
2023-04-30T00:50:22.176Z,7.42
2023-04-30T00:51:22.156Z,7.36
2023-04-30T00:52:22.142Z,7.41
2023-04-30T00:53:22.134Z,7.39
2023-04-30T00:54:22.121Z,7.42
2023-04-30T00:55:22.121Z,7.34
2023-04-30T00:56:22.107Z,7.33
2023-04-30T00:57:22.108Z,7.24
2023-04-30T00:58:22.074Z,7.16
2023-04-30T00:59:22.072Z,7.15
2023-04-30T01:00:22.076Z,7.18
2023-04-30T01:01:22.079Z,7.24
2023-04-30T01:02:22.127Z,7.14
2023-04-30T01:03:22.060Z,7.19
2023-04-30T01:04:22.012Z,7.19
2023-04-30T01:05:22.003Z,7.12
2023-04-30T01:06:22.006Z,7.16
2023-04-30T01:07:21.967Z,7.19
2023-04-30T01:08:21.965Z,7.11
2023-04-30T01:09:21.959Z,7.05
2023-04-30T01:10:21.948Z,7.16
2023-04-30T01:11:21.961Z,7.09
2023-04-30T01:12:21.923Z,7.16
2023-04-30T01:13:21.901Z,7.07
2023-04-30T01:14:21.897Z,7.00
2023-04-30T01:15:21.892Z,7.00
2023-04-30T01:16:21.913Z,6.94
2023-04-30T01:17:21.889Z,6.99
2023-04-30T01:18:21.970Z,6.89
2023-04-30T01:19:21.835Z,6.91
2023-04-30T01:20:21.837Z,6.96
2023-04-30T01:21:21.831Z,6.90
2023-04-30T01:22:21.808Z,6.89
2023-04-30T01:23:21.806Z,6.87
2023-04-30T01:24:21.780Z,6.83
2023-04-30T01:25:21.773Z,6.87
2023-04-30T01:26:21.774Z,6.83
2023-04-30T01:27:21.818Z,6.94
2023-04-30T01:28:21.734Z,6.82
2023-04-30T01:29:21.734Z,6.82
2023-04-30T01:30:21.714Z,6.78
2023-04-30T01:31:21.733Z,6.90
2023-04-30T01:32:21.719Z,6.87
2023-04-30T01:33:21.704Z,6.89
2023-04-30T01:34:21.678Z,6.90
2023-04-30T01:35:21.667Z,6.91
2023-04-30T01:36:21.654Z,6.93
2023-04-30T01:37:21.642Z,6.83
2023-04-30T01:38:21.639Z,6.97
2023-04-30T01:39:21.639Z,6.87
2023-04-30T01:40:21.611Z,6.89
2023-04-30T01:41:21.597Z,6.90
2023-04-30T01:42:21.586Z,7.07
2023-04-30T01:43:21.612Z,6.93
2023-04-30T01:44:21.581Z,6.89
2023-04-30T01:45:21.573Z,6.89
2023-04-30T01:46:21.592Z,7.01
2023-04-30T01:47:21.575Z,6.99
2023-04-30T01:48:21.519Z,7.04
2023-04-30T01:49:21.513Z,6.89
2023-04-30T01:50:21.526Z,6.86
2023-04-30T01:51:21.514Z,6.94
2023-04-30T01:52:21.483Z,6.96
2023-04-30T01:53:21.471Z,6.97
2023-04-30T01:54:21.491Z,7.04
2023-04-30T01:55:21.461Z,7.00
2023-04-30T01:56:21.447Z,7.00
2023-04-30T01:57:21.448Z,6.94
2023-04-30T01:58:21.415Z,7.05
2023-04-30T01:59:21.427Z,7.04
2023-04-30T02:00:21.408Z,6.96
2023-04-30T02:01:21.420Z,7.01
2023-04-30T02:02:21.444Z,6.89
2023-04-30T02:03:21.449Z,6.93
2023-04-30T02:04:21.346Z,6.93
2023-04-30T02:05:21.340Z,6.86
2023-04-30T02:06:21.420Z,7.00
2023-04-30T02:07:21.334Z,6.99
2023-04-30T02:08:21.319Z,6.99
2023-04-30T02:09:21.317Z,7.05
2023-04-30T02:10:21.289Z,7.05
2023-04-30T02:11:21.291Z,7.08
2023-04-30T02:12:21.257Z,7.14
2023-04-30T02:13:21.257Z,7.08
2023-04-30T02:14:21.247Z,7.09
2023-04-30T02:15:21.263Z,7.09
2023-04-30T02:16:21.240Z,7.09
2023-04-30T02:17:21.215Z,7.11
2023-04-30T02:18:21.234Z,7.11
2023-04-30T02:19:21.193Z,7.16
2023-04-30T02:20:21.186Z,7.05
2023-04-30T02:21:21.219Z,7.11
2023-04-30T02:22:21.318Z,7.09
2023-04-30T02:23:21.153Z,7.14
2023-04-30T02:24:21.141Z,7.14
2023-04-30T02:25:21.118Z,7.05
2023-04-30T02:26:21.102Z,7.11
2023-04-30T02:27:21.108Z,6.90
2023-04-30T02:28:21.092Z,7.01
2023-04-30T02:29:21.073Z,7.00
2023-04-30T02:30:21.085Z,6.94
2023-04-30T02:31:21.139Z,7.04
2023-04-30T02:32:21.054Z,7.05
2023-04-30T02:33:21.042Z,6.97
2023-04-30T02:34:21.024Z,7.04
2023-04-30T02:35:21.004Z,7.07
2023-04-30T02:36:21.031Z,6.93
2023-04-30T02:37:20.984Z,7.04
2023-04-30T02:38:20.970Z,6.99
2023-04-30T02:39:20.979Z,7.01
2023-04-30T02:40:20.969Z,6.82
2023-04-30T02:41:20.946Z,6.79
2023-04-30T02:42:20.929Z,6.90
2023-04-30T02:43:20.945Z,6.79
2023-04-30T02:44:20.903Z,7.00
2023-04-30T02:45:20.914Z,6.86
2023-04-30T02:46:20.942Z,6.90
2023-04-30T02:47:20.908Z,6.76
2023-04-30T02:48:20.877Z,6.89
2023-04-30T02:49:20.854Z,6.89
2023-04-30T02:50:20.835Z,6.78
2023-04-30T02:51:20.884Z,6.86
2023-04-30T02:52:20.817Z,6.81
2023-04-30T02:53:20.811Z,6.81
2023-04-30T02:54:20.798Z,6.82
2023-04-30T02:55:20.791Z,6.81
2023-04-30T02:56:20.774Z,6.81
2023-04-30T02:57:20.800Z,6.86
2023-04-30T02:58:20.762Z,6.86
2023-04-30T02:59:20.749Z,6.82
2023-04-30T03:00:20.741Z,6.81
2023-04-30T03:01:20.837Z,6.87
2023-04-30T03:02:20.737Z,6.91
2023-04-30T03:03:20.945Z,6.90
2023-04-30T03:04:20.689Z,6.89
2023-04-30T03:05:20.695Z,6.87
2023-04-30T03:06:20.711Z,6.86
2023-04-30T03:07:20.655Z,6.89
2023-04-30T03:08:20.642Z,6.89
2023-04-30T03:09:20.650Z,7.01
2023-04-30T03:10:20.623Z,6.87
2023-04-30T03:11:20.628Z,6.86
2023-04-30T03:12:20.599Z,6.76
2023-04-30T03:13:20.601Z,6.87
2023-04-30T03:14:20.574Z,6.87
2023-04-30T03:15:20.580Z,6.86
2023-04-30T03:16:20.577Z,6.83
2023-04-30T03:17:20.580Z,6.76
2023-04-30T03:18:20.533Z,6.78
2023-04-30T03:19:20.550Z,6.81
2023-04-30T03:20:20.507Z,6.91
2023-04-30T03:21:20.520Z,6.87
2023-04-30T03:22:20.493Z,6.89
2023-04-30T03:23:20.496Z,6.90
2023-04-30T03:24:20.467Z,6.86
2023-04-30T03:25:20.462Z,6.86
2023-04-30T03:26:20.453Z,6.78
2023-04-30T03:27:20.455Z,6.75
2023-04-30T03:28:20.426Z,6.78
2023-04-30T03:29:20.442Z,6.83
2023-04-30T03:30:20.416Z,6.89
2023-04-30T03:31:20.432Z,6.91
2023-04-30T03:32:20.385Z,6.83
2023-04-30T03:33:20.459Z,6.78
2023-04-30T03:34:20.379Z,6.73
2023-04-30T03:35:20.374Z,6.87
2023-04-30T03:36:20.340Z,6.87
2023-04-30T03:37:20.334Z,6.78
2023-04-30T03:38:20.327Z,6.73
2023-04-30T03:39:20.348Z,6.72
2023-04-30T03:40:20.296Z,6.72
2023-04-30T03:41:20.294Z,6.75
2023-04-30T03:42:20.278Z,6.78
2023-04-30T03:43:20.279Z,6.75
2023-04-30T03:44:20.256Z,6.72
2023-04-30T03:45:20.273Z,6.79
2023-04-30T03:46:20.290Z,6.72
2023-04-30T03:47:20.228Z,6.76
2023-04-30T03:48:20.222Z,6.72
2023-04-30T03:49:20.205Z,6.79
2023-04-30T03:50:20.192Z,6.72
2023-04-30T03:51:20.227Z,6.79
2023-04-30T03:52:20.170Z,6.68
2023-04-30T03:53:20.161Z,6.69
2023-04-30T03:54:20.152Z,6.79
2023-04-30T03:55:20.140Z,6.72
2023-04-30T03:56:20.129Z,6.75
2023-04-30T03:57:20.161Z,6.65
2023-04-30T03:58:20.105Z,6.61
2023-04-30T03:59:20.110Z,6.69
2023-04-30T04:00:20.084Z,6.69
2023-04-30T04:01:20.092Z,6.76
2023-04-30T04:02:20.108Z,6.68
2023-04-30T04:03:20.174Z,6.79
2023-04-30T04:04:20.128Z,6.76
2023-04-30T04:05:20.045Z,6.71
2023-04-30T04:06:20.040Z,6.60
2023-04-30T04:07:20.049Z,6.60
2023-04-30T04:08:20.009Z,6.75
2023-04-30T04:09:20.053Z,6.63
2023-04-30T04:10:19.993Z,6.69
2023-04-30T04:11:19.968Z,6.69
2023-04-30T04:12:19.953Z,6.78
2023-04-30T04:13:19.947Z,6.72
2023-04-30T04:14:19.947Z,6.76
2023-04-30T04:15:19.957Z,6.72
2023-04-30T04:16:19.935Z,6.72
2023-04-30T04:17:19.906Z,6.75
2023-04-30T04:18:19.894Z,6.76
2023-04-30T04:19:19.881Z,6.68
2023-04-30T04:20:19.876Z,6.76
2023-04-30T04:21:19.876Z,6.63
2023-04-30T04:22:19.857Z,6.82
2023-04-30T04:23:19.872Z,6.71
2023-04-30T04:24:19.833Z,6.79
2023-04-30T04:25:19.827Z,6.71
2023-04-30T04:26:19.806Z,6.86
2023-04-30T04:27:19.825Z,6.76
2023-04-30T04:28:19.786Z,6.83
2023-04-30T04:29:19.772Z,6.81
2023-04-30T04:30:19.763Z,6.90
2023-04-30T04:31:19.790Z,6.93
2023-04-30T04:32:19.742Z,6.96
2023-04-30T04:33:19.762Z,6.89
2023-04-30T04:34:19.708Z,6.91
2023-04-30T04:35:19.706Z,6.86
2023-04-30T04:36:19.700Z,6.86
2023-04-30T04:37:19.684Z,6.97
2023-04-30T04:38:19.668Z,6.90
2023-04-30T04:39:19.699Z,6.94
2023-04-30T04:40:19.646Z,6.97
2023-04-30T04:41:19.643Z,6.99
2023-04-30T04:42:19.624Z,7.07
2023-04-30T04:43:19.622Z,6.96
2023-04-30T04:44:19.626Z,7.01
2023-04-30T04:45:19.607Z,7.00
2023-04-30T04:46:19.645Z,6.94
2023-04-30T04:47:19.624Z,6.96
2023-04-30T04:48:19.556Z,7.12
2023-04-30T04:49:19.548Z,6.97
2023-04-30T04:50:19.548Z,7.07
2023-04-30T04:51:19.572Z,7.07
2023-04-30T04:52:19.514Z,7.01
2023-04-30T04:53:19.504Z,7.00
2023-04-30T04:54:19.496Z,6.99
2023-04-30T04:55:19.519Z,6.87
2023-04-30T04:56:19.483Z,6.96
2023-04-30T04:57:19.556Z,6.99
2023-04-30T04:58:19.446Z,6.89
2023-04-30T04:59:19.441Z,6.96
2023-04-30T05:00:19.426Z,7.04
2023-04-30T05:01:19.449Z,7.07
2023-04-30T05:02:19.406Z,7.09
2023-04-30T05:03:19.497Z,7.05
2023-04-30T05:04:19.385Z,7.15
2023-04-30T05:05:19.411Z,6.94
2023-04-30T05:06:19.382Z,6.97
2023-04-30T05:07:19.370Z,7.04
2023-04-30T05:08:19.336Z,7.01
2023-04-30T05:09:19.366Z,7.09
2023-04-30T05:10:19.319Z,7.00
2023-04-30T05:11:19.329Z,7.07
2023-04-30T05:12:19.292Z,7.16
2023-04-30T05:13:19.285Z,7.18
2023-04-30T05:14:19.271Z,7.32
2023-04-30T05:15:19.296Z,7.14
2023-04-30T05:16:19.279Z,7.27
2023-04-30T05:17:19.241Z,7.47
2023-04-30T05:18:19.227Z,7.44
2023-04-30T05:19:19.224Z,7.41
2023-04-30T05:20:19.214Z,7.42
2023-04-30T05:21:19.228Z,7.42
2023-04-30T05:22:19.192Z,7.42
2023-04-30T05:23:19.176Z,7.42
2023-04-30T05:24:19.169Z,7.45
2023-04-30T05:25:19.155Z,7.50
2023-04-30T05:26:19.154Z,7.55
2023-04-30T05:27:19.155Z,7.52
2023-04-30T05:28:19.121Z,7.58
2023-04-30T05:29:19.110Z,7.62
2023-04-30T05:30:19.099Z,7.62
2023-04-30T05:31:20.969Z,7.69
2023-04-30T05:32:19.084Z,7.69
2023-04-30T05:33:19.087Z,7.69
2023-04-30T05:34:19.052Z,7.84
2023-04-30T05:35:19.050Z,7.71
2023-04-30T05:36:19.042Z,7.71
2023-04-30T05:37:19.020Z,7.63
2023-04-30T05:38:19.024Z,7.66
2023-04-30T05:39:19.012Z,7.63
2023-04-30T05:40:19.010Z,7.47
2023-04-30T05:41:18.971Z,7.62
2023-04-30T05:42:19.006Z,7.69
2023-04-30T05:43:18.992Z,7.62
2023-04-30T05:44:18.946Z,7.67
2023-04-30T05:45:18.964Z,7.66
2023-04-30T05:46:18.937Z,7.73
2023-04-30T05:47:18.924Z,7.73
2023-04-30T05:48:18.965Z,7.74
2023-04-30T05:49:18.888Z,7.82
2023-04-30T05:50:18.880Z,7.89
2023-04-30T05:51:18.887Z,7.77
2023-04-30T05:52:18.860Z,7.86
2023-04-30T05:53:18.858Z,7.85
2023-04-30T05:54:18.834Z,7.95
2023-04-30T05:55:18.825Z,7.88
2023-04-30T05:56:18.833Z,8.04
2023-04-30T05:57:18.825Z,8.03
2023-04-30T05:58:18.802Z,7.94
2023-04-30T05:59:18.800Z,8.06
2023-04-30T06:00:18.773Z,8.07
2023-04-30T06:01:18.760Z,8.06
2023-04-30T06:02:18.771Z,8.09
2023-04-30T06:03:18.786Z,8.24
2023-04-30T06:04:18.748Z,8.18
2023-04-30T06:05:18.713Z,8.14
2023-04-30T06:06:18.757Z,8.22
2023-04-30T06:07:18.693Z,8.27
2023-04-30T06:08:18.700Z,8.47
2023-04-30T06:09:18.687Z,8.64
2023-04-30T06:10:18.670Z,9.12
2023-04-30T06:11:18.651Z,9.16
2023-04-30T06:12:18.641Z,9.19
2023-04-30T06:13:18.641Z,9.04
2023-04-30T06:14:18.639Z,8.79
2023-04-30T06:15:18.638Z,8.73
2023-04-30T06:16:18.661Z,8.86
2023-04-30T06:17:18.592Z,8.70
2023-04-30T06:18:18.577Z,9.00
2023-04-30T06:19:18.565Z,9.20
2023-04-30T06:20:18.564Z,9.00
2023-04-30T06:21:18.560Z,8.78
2023-04-30T06:22:18.535Z,8.76
2023-04-30T06:23:18.531Z,8.64
2023-04-30T06:24:18.515Z,8.82
2023-04-30T06:25:18.500Z,8.68
2023-04-30T06:26:18.501Z,8.86
2023-04-30T06:27:18.497Z,8.85
2023-04-30T06:28:18.471Z,9.00
2023-04-30T06:29:18.459Z,9.03
2023-04-30T06:30:18.457Z,8.94
2023-04-30T06:31:18.503Z,8.93
2023-04-30T06:32:18.434Z,9.03
2023-04-30T06:33:18.430Z,9.08
2023-04-30T06:34:18.401Z,9.12
2023-04-30T06:35:18.385Z,9.08
2023-04-30T06:36:18.382Z,9.00
2023-04-30T06:37:18.375Z,9.06
2023-04-30T06:38:18.398Z,8.96
2023-04-30T06:39:18.358Z,9.04
2023-04-30T06:40:18.346Z,9.04
2023-04-30T06:41:18.344Z,9.12
2023-04-30T06:42:18.335Z,9.04
2023-04-30T06:43:18.306Z,9.01
2023-04-30T06:44:18.292Z,9.03
2023-04-30T06:45:18.294Z,9.08
2023-04-30T06:46:18.421Z,8.80
2023-04-30T06:47:18.479Z,8.85
2023-04-30T06:48:18.257Z,8.79
2023-04-30T06:49:18.240Z,8.78
2023-04-30T06:50:18.232Z,8.88
2023-04-30T06:51:18.245Z,8.94
2023-04-30T06:52:18.240Z,9.04
2023-04-30T06:53:18.209Z,9.01
2023-04-30T06:54:18.181Z,9.06
2023-04-30T06:55:18.171Z,8.97
2023-04-30T06:56:18.159Z,9.03
2023-04-30T06:57:18.164Z,9.08
2023-04-30T06:58:18.140Z,9.06
2023-04-30T06:59:18.162Z,9.19
2023-04-30T07:00:18.113Z,9.22
2023-04-30T07:01:18.126Z,9.20
2023-04-30T07:02:19.397Z,9.17
2023-04-30T07:03:18.198Z,9.16
2023-04-30T07:04:18.087Z,9.40
2023-04-30T07:05:18.066Z,9.32
2023-04-30T07:06:18.151Z,9.32
2023-04-30T07:07:18.042Z,9.27
2023-04-30T07:08:18.025Z,9.32
2023-04-30T07:09:18.032Z,9.55
2023-04-30T07:10:18.014Z,9.50
2023-04-30T07:11:17.996Z,9.56
2023-04-30T07:12:17.980Z,9.68
2023-04-30T07:13:17.972Z,9.56
2023-04-30T07:14:17.995Z,9.70
2023-04-30T07:15:17.971Z,9.59
2023-04-30T07:16:17.976Z,9.44
2023-04-30T07:17:18.006Z,9.37
2023-04-30T07:18:17.916Z,9.34
2023-04-30T07:19:17.937Z,9.40
2023-04-30T07:20:17.918Z,9.55
2023-04-30T07:21:17.903Z,9.59
2023-04-30T07:22:17.875Z,9.71
2023-04-30T07:23:17.866Z,9.58
2023-04-30T07:24:17.851Z,9.48
2023-04-30T07:25:17.844Z,9.55
2023-04-30T07:26:17.840Z,9.53
2023-04-30T07:27:17.843Z,9.53
2023-04-30T07:28:17.819Z,9.37
2023-04-30T07:29:17.804Z,9.38
2023-04-30T07:30:17.787Z,9.42
2023-04-30T07:31:17.811Z,9.40
2023-04-30T07:32:17.768Z,9.38
2023-04-30T07:33:17.939Z,9.55
2023-04-30T07:34:17.744Z,9.63
2023-04-30T07:35:17.764Z,9.55
2023-04-30T07:36:17.725Z,9.48
2023-04-30T07:37:17.728Z,9.50
2023-04-30T07:38:17.699Z,9.45
2023-04-30T07:39:17.729Z,9.58
2023-04-30T07:40:28.990Z,9.53
2023-04-30T07:41:18.674Z,9.53
2023-04-30T07:42:17.666Z,9.62
2023-04-30T07:43:17.660Z,9.53
2023-04-30T07:44:17.646Z,9.53
2023-04-30T07:45:17.668Z,9.53
2023-04-30T07:46:17.639Z,9.58
2023-04-30T07:47:17.622Z,9.55
2023-04-30T07:48:17.598Z,9.55
2023-04-30T07:49:17.590Z,9.67
2023-04-30T07:50:17.575Z,9.74
2023-04-30T07:51:17.609Z,9.74
2023-04-30T07:52:17.553Z,9.83
2023-04-30T07:53:17.544Z,9.71
2023-04-30T07:54:17.542Z,9.86
2023-04-30T07:55:17.561Z,9.92
2023-04-30T07:56:17.541Z,9.80
2023-04-30T07:57:17.536Z,9.70
2023-04-30T07:58:17.494Z,9.62
2023-04-30T07:59:17.487Z,9.73
2023-04-30T08:00:17.494Z,9.75
2023-04-30T08:01:17.465Z,9.77
2023-04-30T08:02:17.523Z,9.91
2023-04-30T08:03:17.532Z,9.75
2023-04-30T08:04:17.465Z,9.59
2023-04-30T08:05:17.431Z,9.88
2023-04-30T08:06:17.434Z,9.88
2023-04-30T08:07:17.418Z,9.99
2023-04-30T08:08:17.401Z,9.92
2023-04-30T08:09:17.386Z,10.18
2023-04-30T08:10:17.364Z,10.02
2023-04-30T08:11:17.397Z,10.01
2023-04-30T08:12:17.344Z,9.86
2023-04-30T08:13:17.334Z,9.85
2023-04-30T08:14:17.340Z,10.04
2023-04-30T08:15:17.326Z,10.14
2023-04-30T08:16:17.356Z,10.36
2023-04-30T08:17:17.290Z,10.28
2023-04-30T08:18:17.552Z,10.36
2023-04-30T08:19:17.269Z,10.35
2023-04-30T08:20:17.267Z,10.52
2023-04-30T08:21:17.256Z,10.62
2023-04-30T08:22:17.247Z,10.60
2023-04-30T08:23:17.345Z,10.62
2023-04-30T08:24:17.213Z,10.68
2023-04-30T08:25:17.253Z,10.88
2023-04-30T08:26:17.193Z,11.02
2023-04-30T08:27:17.211Z,11.01
2023-04-30T08:28:17.171Z,10.93
2023-04-30T08:29:17.160Z,10.90
2023-04-30T08:30:17.150Z,11.13
2023-04-30T08:31:17.178Z,11.09
2023-04-30T08:32:17.193Z,11.11
2023-04-30T08:33:17.290Z,10.93
2023-04-30T08:34:17.103Z,10.86
2023-04-30T08:35:17.111Z,11.13
2023-04-30T08:36:17.084Z,11.09
2023-04-30T08:37:17.079Z,11.24
2023-04-30T08:38:17.056Z,11.23
2023-04-30T08:39:17.089Z,11.28
2023-04-30T08:40:17.047Z,11.24
2023-04-30T08:41:17.031Z,11.48
2023-04-30T08:42:17.039Z,11.49
2023-04-30T08:43:17.006Z,11.62
2023-04-30T08:44:16.994Z,11.44
2023-04-30T08:45:17.002Z,11.53
2023-04-30T08:46:17.136Z,11.44
2023-04-30T08:47:16.960Z,11.53
2023-04-30T08:48:16.965Z,11.82
2023-04-30T08:49:17.067Z,11.93
2023-04-30T08:50:16.924Z,11.97
2023-04-30T08:51:16.938Z,11.81
2023-04-30T08:52:16.903Z,11.84
2023-04-30T08:53:16.894Z,12.16
2023-04-30T08:54:16.893Z,12.22
2023-04-30T08:55:16.896Z,11.88
2023-04-30T08:56:16.857Z,11.77
2023-04-30T08:57:16.864Z,11.94
2023-04-30T08:58:16.833Z,11.85
2023-04-30T08:59:16.827Z,12.21
2023-04-30T09:00:16.823Z,12.37
2023-04-30T09:01:16.859Z,12.59
2023-04-30T09:02:16.821Z,12.84
2023-04-30T09:03:16.832Z,12.87
2023-04-30T09:04:16.773Z,12.87
2023-04-30T09:05:16.787Z,12.81
2023-04-30T09:06:16.925Z,12.85
2023-04-30T09:07:16.740Z,12.92
2023-04-30T09:08:16.731Z,12.73
2023-04-30T09:09:16.727Z,12.85
2023-04-30T09:10:16.712Z,12.76
2023-04-30T09:11:16.718Z,12.85
2023-04-30T09:12:18.798Z,12.76
2023-04-30T09:13:16.673Z,12.77
2023-04-30T09:14:16.662Z,12.91
2023-04-30T09:15:16.670Z,13.12
2023-04-30T09:16:16.736Z,13.01
2023-04-30T09:17:16.648Z,12.96
2023-04-30T09:18:16.659Z,13.06
2023-04-30T09:19:16.609Z,13.53
2023-04-30T09:20:16.608Z,13.79
2023-04-30T09:21:16.615Z,13.96
2023-04-30T09:22:16.586Z,14.23
2023-04-30T09:23:16.573Z,14.02
2023-04-30T09:24:17.962Z,13.88
2023-04-30T09:25:16.543Z,13.88
2023-04-30T09:26:17.352Z,13.96
2023-04-30T09:27:16.569Z,13.66
2023-04-30T09:28:16.513Z,13.51
2023-04-30T09:29:16.498Z,13.55
2023-04-30T09:30:16.485Z,13.75
2023-04-30T09:31:16.520Z,13.41
2023-04-30T09:32:16.473Z,13.48
2023-04-30T09:33:16.496Z,13.39
2023-04-30T09:34:16.455Z,13.17
2023-04-30T09:35:16.437Z,13.19
2023-04-30T09:36:16.419Z,13.32
2023-04-30T09:37:16.420Z,13.59
2023-04-30T09:38:16.407Z,13.53
2023-04-30T09:39:16.430Z,13.51
2023-04-30T09:40:16.405Z,13.63
2023-04-30T09:41:16.369Z,13.79
2023-04-30T09:42:16.356Z,13.83
2023-04-30T09:43:16.370Z,13.73
2023-04-30T09:44:16.336Z,13.54
2023-04-30T09:45:16.341Z,13.39
2023-04-30T09:46:16.367Z,13.21
2023-04-30T09:47:16.302Z,13.38
2023-04-30T09:48:17.943Z,13.25
2023-04-30T09:49:16.292Z,13.61
2023-04-30T09:50:16.456Z,13.53
2023-04-30T09:51:16.266Z,13.48
2023-04-30T09:52:16.248Z,13.39
2023-04-30T09:53:16.250Z,13.59
2023-04-30T09:54:16.231Z,13.98
2023-04-30T09:55:16.212Z,13.98
2023-04-30T09:56:16.237Z,14.29
2023-04-30T09:57:16.209Z,14.31
2023-04-30T09:58:16.183Z,14.35
2023-04-30T09:59:16.759Z,14.64
2023-04-30T10:00:16.189Z,14.85
2023-04-30T10:01:16.267Z,14.56
2023-04-30T10:02:16.143Z,14.53
2023-04-30T10:03:16.128Z,14.82
2023-04-30T10:04:16.229Z,14.53
2023-04-30T10:05:16.118Z,14.27
2023-04-30T10:06:16.171Z,14.46
2023-04-30T10:07:17.545Z,14.39
2023-04-30T10:08:16.081Z,14.21
2023-04-30T10:09:16.073Z,14.09
2023-04-30T10:10:16.107Z,14.16
2023-04-30T10:11:16.042Z,14.34
2023-04-30T10:12:16.037Z,14.44
2023-04-30T10:13:16.051Z,14.72
2023-04-30T10:14:16.010Z,15.19
2023-04-30T10:15:16.056Z,15.19
2023-04-30T10:16:16.041Z,15.09
2023-04-30T10:17:15.974Z,15.58
2023-04-30T10:18:15.974Z,15.84
2023-04-30T10:19:15.967Z,15.71
2023-04-30T10:20:15.948Z,15.15
2023-04-30T10:21:15.929Z,15.07
2023-04-30T10:22:15.925Z,15.16
2023-04-30T10:23:15.938Z,15.04
2023-04-30T10:24:15.907Z,14.97
2023-04-30T10:25:15.893Z,15.12
2023-04-30T10:26:15.876Z,15.31
2023-04-30T10:27:15.871Z,15.80
2023-04-30T10:28:15.859Z,15.95
2023-04-30T10:29:15.870Z,15.99
2023-04-30T10:30:15.836Z,15.96
2023-04-30T10:31:15.839Z,15.84
2023-04-30T10:32:15.835Z,15.41
2023-04-30T10:33:16.796Z,15.31
2023-04-30T10:34:15.790Z,15.96
2023-04-30T10:35:15.785Z,16.01
2023-04-30T10:36:15.771Z,16.18
2023-04-30T10:37:15.766Z,16.41
2023-04-30T10:38:15.745Z,16.41
2023-04-30T10:39:16.733Z,15.95
2023-04-30T10:40:15.723Z,15.91
2023-04-30T10:41:15.730Z,15.80
2023-04-30T10:42:15.704Z,15.70
2023-04-30T10:43:15.750Z,15.99
2023-04-30T10:44:15.689Z,15.86
2023-04-30T10:45:15.668Z,15.86
2023-04-30T10:46:15.698Z,15.95
2023-04-30T10:47:15.785Z,16.08
2023-04-30T10:48:15.735Z,16.07
2023-04-30T10:49:15.639Z,16.44
2023-04-30T10:50:15.620Z,16.29
2023-04-30T10:51:15.604Z,16.42
2023-04-30T10:52:15.595Z,16.27
2023-04-30T10:53:15.599Z,16.44
2023-04-30T10:54:15.593Z,16.14
2023-04-30T10:55:15.560Z,15.89
2023-04-30T10:56:15.558Z,16.11
2023-04-30T10:57:15.537Z,16.44
2023-04-30T10:58:15.531Z,16.45
2023-04-30T10:59:15.535Z,16.57
2023-04-30T11:00:15.524Z,17.10
2023-04-30T11:01:15.579Z,16.69
2023-04-30T11:02:15.491Z,16.55
2023-04-30T11:03:15.498Z,16.37
2023-04-30T11:04:15.548Z,16.73
2023-04-30T11:05:15.524Z,16.77
2023-04-30T11:06:15.521Z,16.57
2023-04-30T11:07:15.433Z,16.47
2023-04-30T11:08:15.450Z,16.66
2023-04-30T11:09:15.409Z,16.88
2023-04-30T11:10:15.400Z,16.32
2023-04-30T11:11:15.405Z,16.16
2023-04-30T11:12:15.424Z,16.17
2023-04-30T11:13:15.370Z,16.08
2023-04-30T11:14:15.361Z,16.23
2023-04-30T11:15:15.364Z,16.44
2023-04-30T11:16:15.405Z,16.95
2023-04-30T11:17:15.354Z,17.24
2023-04-30T11:18:15.327Z,17.22
2023-04-30T11:19:15.334Z,16.81
2023-04-30T11:20:15.301Z,16.85
2023-04-30T11:21:15.277Z,17.06
2023-04-30T11:22:15.269Z,16.72
2023-04-30T11:23:21.781Z,16.33
2023-04-30T11:24:16.290Z,16.30
2023-04-30T11:25:15.270Z,16.55
2023-04-30T11:26:15.231Z,16.65
2023-04-30T11:27:15.235Z,16.90
2023-04-30T11:28:15.202Z,16.82
2023-04-30T11:29:15.289Z,16.91
2023-04-30T11:30:15.426Z,17.03
2023-04-30T11:31:15.726Z,16.84
2023-04-30T11:32:15.161Z,16.62
2023-04-30T11:33:15.148Z,16.57
2023-04-30T11:34:15.155Z,16.88
2023-04-30T11:35:15.156Z,16.75
2023-04-30T11:36:15.138Z,16.70
2023-04-30T11:37:15.100Z,17.33
2023-04-30T11:38:15.103Z,17.28
2023-04-30T11:39:15.081Z,17.21
2023-04-30T11:40:15.110Z,17.32
2023-04-30T11:41:15.070Z,17.35
2023-04-30T11:42:15.074Z,17.25
2023-04-30T11:43:15.034Z,17.47
2023-04-30T11:44:15.029Z,17.46
2023-04-30T11:45:15.014Z,17.63
2023-04-30T11:46:15.071Z,17.10
2023-04-30T11:47:15.076Z,16.88
2023-04-30T11:48:14.997Z,17.42
2023-04-30T11:49:14.973Z,17.09
2023-04-30T11:50:14.977Z,16.82
2023-04-30T11:51:14.998Z,16.87
2023-04-30T11:52:14.956Z,17.14
2023-04-30T11:53:14.933Z,16.80
2023-04-30T11:54:14.939Z,17.20
2023-04-30T11:55:14.907Z,17.40
2023-04-30T11:56:14.898Z,17.74
2023-04-30T11:57:14.893Z,17.51
2023-04-30T11:58:14.875Z,17.28
2023-04-30T11:59:14.867Z,17.03
2023-04-30T12:00:14.886Z,17.07
2023-04-30T12:01:14.846Z,16.99
2023-04-30T12:02:14.888Z,17.14
2023-04-30T12:03:14.903Z,16.55
2023-04-30T12:04:14.942Z,16.55
2023-04-30T12:05:14.812Z,16.77
2023-04-30T12:06:14.815Z,16.67
2023-04-30T12:07:14.866Z,16.73
2023-04-30T12:08:14.766Z,16.81
2023-04-30T12:09:14.763Z,17.06
2023-04-30T12:10:14.816Z,17.65
2023-04-30T12:11:14.743Z,17.81
2023-04-30T12:12:14.746Z,18.09
2023-04-30T12:13:14.706Z,18.13
2023-04-30T12:14:14.714Z,17.87
2023-04-30T12:15:14.687Z,17.66
2023-04-30T12:16:14.717Z,17.28
2023-04-30T12:17:14.666Z,17.68
2023-04-30T12:18:14.670Z,18.05
2023-04-30T12:19:14.675Z,18.21
2023-04-30T12:20:14.666Z,18.38
2023-04-30T12:21:14.629Z,18.41
2023-04-30T12:22:14.626Z,18.51
2023-04-30T12:23:14.618Z,18.44
2023-04-30T12:24:14.628Z,18.90
2023-04-30T12:25:14.584Z,18.53
2023-04-30T12:26:14.585Z,18.72
2023-04-30T12:27:14.558Z,18.99
2023-04-30T12:28:14.548Z,18.99
2023-04-30T12:29:15.759Z,18.60
2023-04-30T12:30:14.543Z,18.68
2023-04-30T12:31:14.513Z,18.66
2023-04-30T12:32:14.576Z,18.76
2023-04-30T12:33:14.542Z,18.78
2023-04-30T12:34:14.515Z,18.26
2023-04-30T12:35:14.501Z,18.01
2023-04-30T12:36:14.545Z,18.14
2023-04-30T12:37:14.446Z,17.91
2023-04-30T12:38:14.442Z,17.89
2023-04-30T12:39:14.442Z,18.05
2023-04-30T12:40:14.464Z,18.17
2023-04-30T12:41:14.403Z,18.25
2023-04-30T12:42:14.406Z,18.25
2023-04-30T12:43:14.384Z,18.46
2023-04-30T12:44:14.383Z,18.57
2023-04-30T12:45:14.408Z,18.51
2023-04-30T12:46:14.486Z,18.91
2023-04-30T12:47:14.428Z,18.84
2023-04-30T12:48:14.419Z,18.86
2023-04-30T12:49:14.337Z,18.90
2023-04-30T12:50:14.323Z,19.05
2023-04-30T12:51:14.326Z,19.24
2023-04-30T12:52:14.303Z,19.23
2023-04-30T12:53:14.280Z,18.86
2023-04-30T12:54:14.306Z,18.79
2023-04-30T12:55:14.349Z,18.54
2023-04-30T12:56:14.240Z,18.76
2023-04-30T12:57:14.250Z,19.13
2023-04-30T12:58:14.290Z,19.07
2023-04-30T12:59:14.217Z,18.68
2023-04-30T13:00:14.213Z,18.38
2023-04-30T13:01:14.257Z,18.74
2023-04-30T13:02:14.230Z,18.74
2023-04-30T13:03:14.223Z,18.79
2023-04-30T13:04:14.157Z,18.74
2023-04-30T13:05:15.947Z,18.82
2023-04-30T13:06:14.194Z,18.41
2023-04-30T13:07:14.124Z,18.47
2023-04-30T13:08:14.112Z,18.21